| time (UTC) | temp C | wind direction | speed KPH | gust KPH | rain 1hr cm | rain 24hr cm | rain mn cm | humidity % | barometer mb |
| 20260906225016 | 36 | 135 | 4.8 | 12.9 | 0.00 | 0.00 | 0.00 | 39 | 1012.3 |
| 20260906224016 | 36 | 158 | 6.4 | 17.7 | 0.00 | 0.00 | 0.00 | 39 | 1012.3 |
| 20260906223016 | 36 | 135 | 4.8 | 20.9 | 0.00 | 0.00 | 0.00 | 38 | 1012.4 |
| 20260906222036 | 36 | 135 | 4.8 | 19.3 | 0.00 | 0.00 | 0.00 | 39 | 1012.5 |
| 20260906221036 | 36 | 135 | 3.2 | 11.3 | 0.00 | 0.00 | 0.00 | 38 | 1012.6 |
| 20260906220016 | 36 | 135 | 4.8 | 17.7 | 0.00 | 0.00 | 0.00 | 38 | 1012.6 |
| 20260906215016 | 36 | 68 | 4.8 | 17.7 | 0.00 | 0.00 | 0.00 | 39 | 1012.7 |
| 20260906214016 | 37 | 135 | 6.4 | 20.9 | 0.00 | 0.00 | 0.00 | 38 | 1012.9 |
| 20260906213016 | 37 | 113 | 3.2 | 9.7 | 0.00 | 0.00 | 0.00 | 38 | 1013.0 |
| 20260906212016 | 37 | 180 | 3.2 | 9.7 | 0.00 | 0.00 | 0.00 | 37 | 1013.2 |
| 20260906211016 | 37 | 135 | 6.4 | 16.1 | 0.00 | 0.00 | 0.00 | 37 | 1013.3 |
| 20260906210016 | 37 | 135 | 4.8 | 17.7 | 0.00 | 0.00 | 0.00 | 37 | 1013.4 |
| 20260906205036 | 37 | 135 | 8.0 | 25.7 | 0.00 | 0.00 | 0.00 | 37 | 1013.6 |
| 20260906204016 | 37 | 180 | 4.8 | 17.7 | 0.00 | 0.00 | 0.00 | 37 | 1013.6 |
| 20260906203016 | 37 | 135 | 8.0 | 19.3 | 0.00 | 0.00 | 0.00 | 37 | 1013.7 |
| 20260906202015 | 37 | 135 | 6.4 | 20.9 | 0.00 | 0.00 | 0.00 | 37 | 1013.7 |
| 20260906201016 | 37 | 135 | 8.0 | 24.1 | 0.00 | 0.00 | 0.00 | 38 | 1013.9 |
| 20260906200016 | 37 | 135 | 3.2 | 12.9 | 0.00 | 0.00 | 0.00 | 38 | 1014.0 |
| 20260906195016 | 37 | 135 | 4.8 | 19.3 | 0.00 | 0.00 | 0.00 | 39 | 1014.1 |
| 20260906194015 | 37 | 135 | 8.0 | 22.5 | 0.00 | 0.00 | 0.00 | 39 | 1014.1 |
| 20260906193015 | 37 | 158 | 8.0 | 19.3 | 0.00 | 0.00 | 0.00 | 39 | 1014.3 |
| 20260906192015 | 37 | 113 | 3.2 | 11.3 | 0.00 | 0.00 | 0.00 | 40 | 1014.4 |
| 20260906191016 | 37 | 135 | 6.4 | 20.9 | 0.00 | 0.00 | 0.00 | 39 | 1014.6 |
| 20260906190016 | 37 | 135 | 6.4 | 14.5 | 0.00 | 0.00 | 0.00 | 40 | 1014.6 |
| 20260906185036 | 37 | 135 | 8.0 | 17.7 | 0.00 | 0.00 | 0.00 | 39 | 1014.7 |
| 20260906184016 | 37 | 113 | 6.4 | 16.1 | 0.00 | 0.00 | 0.00 | 40 | 1014.8 |
| 20260906183015 | 36 | 135 | 8.0 | 22.5 | 0.00 | 0.00 | 0.00 | 40 | 1015.0 |
| 20260906182036 | 36 | 135 | 4.8 | 14.5 | 0.00 | 0.00 | 0.00 | 41 | 1015.0 |
| 20260906181015 | 36 | 135 | 8.0 | 17.7 | 0.00 | 0.00 | 0.00 | 42 | 1015.4 |
| 20260906180015 | 35 | 135 | 4.8 | 19.3 | 0.00 | 0.00 | 0.00 | 43 | 1015.4 |
| 20260906175016 | 36 | 135 | 4.8 | 16.1 | 0.00 | 0.00 | 0.00 | 43 | 1015.6 |
| 20260906174015 | 36 | 135 | 6.4 | 19.3 | 0.00 | 0.00 | 0.00 | 43 | 1015.8 |
| 20260906173036 | 36 | 135 | 4.8 | 16.1 | 0.00 | 0.00 | 0.00 | 44 | 1016.1 |
| 20260906172015 | 36 | 135 | 4.8 | 16.1 | 0.00 | 0.00 | 0.00 | 45 | 1016.0 |
| 20260906171015 | 35 | 135 | 6.4 | 16.1 | 0.00 | 0.00 | 0.00 | 46 | 1016.1 |
| 20260906170015 | 35 | 135 | 4.8 | 19.3 | 0.00 | 0.00 | 0.00 | 46 | 1016.3 |
| 20260906165015 | 35 | 135 | 3.2 | 14.5 | 0.00 | 0.00 | 0.00 | 46 | 1016.3 |
| 20260906164015 | 35 | 135 | 3.2 | 14.5 | 0.00 | 0.00 | 0.00 | 48 | 1016.4 |
| 20260906163015 | 34 | 135 | 6.4 | 16.1 | 0.00 | 0.00 | 0.00 | 49 | 1016.4 |
| 20260906162015 | 34 | 135 | 4.8 | 16.1 | 0.00 | 0.00 | 0.00 | 51 | 1016.4 |
| 20260906161015 | 33 | 135 | 3.2 | 11.3 | 0.00 | 0.00 | 0.00 | 53 | 1016.5 |
| 20260906160015 | 33 | 23 | 3.2 | 14.5 | 0.00 | 0.00 | 0.00 | 54 | 1016.4 |
| 20260906155035 | 33 | 158 | 3.2 | 11.3 | 0.00 | 0.00 | 0.00 | 56 | 1016.4 |
| 20260906154035 | 32 | 0.0 | 0.0 | 0.00 | 0.00 | 0.00 | 57 | 1016.5 | |
| 20260906153017 | 32 | 0.0 | 0.0 | 0.00 | 0.00 | 0.00 | 58 | 1016.4 | |
| 20260906152017 | 32 | 0.0 | 0.0 | 0.00 | 0.00 | 0.00 | 60 | 1016.2 | |
| 20260906151017 | 31 | 0.0 | 3.2 | 0.00 | 0.00 | 0.00 | 62 | 1016.1 | |
| 20260906150017 | 31 | 158 | 1.6 | 9.7 | 0.00 | 0.00 | 0.00 | 63 | 1016.0 |
| 20260906145017 | 30 | 0.0 | 0.0 | 0.00 | 0.00 | 0.00 | 65 | 1016.0 | |
| 20260906144017 | 30 | 0.0 | 0.0 | 0.00 | 0.00 | 0.00 | 67 | 1015.9 | |
| 20260906143017 | 28 | 0.0 | 0.0 | 0.00 | 0.00 | 0.00 | 69 | 1015.9 | |
| 20260906142015 | 28 | 0.0 | 0.0 | 0.00 | 0.00 | 0.00 | 70 | 1015.9 | |
| 20260906141017 | 27 | 0.0 | 0.0 | 0.00 | 0.00 | 0.00 | 73 | 1015.9 | |
| 20260906140017 | 27 | 0.0 | 0.0 | 0.00 | 0.00 | 0.00 | 75 | 1015.9 | |
| 20260906135018 | 26 | 0.0 | 0.0 | 0.00 | 0.00 | 0.00 | 77 | 1015.8 | |
| 20260906134017 | 26 | 0.0 | 0.0 | 0.00 | 0.00 | 0.00 | 80 | 1015.8 | |
| 20260906133017 | 25 | 0.0 | 0.0 | 0.00 | 0.00 | 0.00 | 81 | 1015.7 | |
| 20260906132017 | 25 | 0.0 | 0.0 | 0.00 | 0.00 | 0.00 | 83 | 1015.7 | |
| 20260906131017 | 24 | 0.0 | 0.0 | 0.00 | 0.00 | 0.00 | 84 | 1015.8 | |
| 20260906130017 | 23 | 0.0 | 0.0 | 0.00 | 0.00 | 0.00 | 83 | 1015.7 | |
| 20260906125017 | 23 | 0.0 | 0.0 | 0.00 | 0.00 | 0.00 | 83 | 1015.6 | |
| 20260906124017 | 23 | 0.0 | 0.0 | 0.00 | 0.00 | 0.00 | 83 | 1015.7 | |
| 20260906123017 | 23 | 0.0 | 0.0 | 0.00 | 0.00 | 0.00 | 83 | 1015.5 | |
| 20260906122017 | 23 | 0.0 | 0.0 | 0.00 | 0.00 | 0.00 | 83 | 1015.3 | |
| 20260906121017 | 23 | 0.0 | 0.0 | 0.00 | 0.00 | 0.00 | 82 | 1015.2 | |
| 20260906120017 | 23 | 0.0 | 0.0 | 0.00 | 0.00 | 0.00 | 82 | 1015.2 | |
| 20260906115017 | 23 | 0.0 | 0.0 | 0.00 | 0.00 | 0.00 | 82 | 1015.1 | |
| 20260906114017 | 23 | 0.0 | 0.0 | 0.00 | 0.00 | 0.00 | 82 | 1015.0 | |
| 20260906113017 | 23 | 0.0 | 0.0 | 0.00 | 0.00 | 0.00 | 81 | 1014.9 | |
| 20260906112017 | 23 | 0.0 | 0.0 | 0.00 | 0.00 | 0.00 | 81 | 1014.9 | |
| 20260906111037 | 24 | 0.0 | 0.0 | 0.00 | 0.00 | 0.00 | 81 | 1014.7 | |
| 20260906110017 | 24 | 0.0 | 0.0 | 0.00 | 0.00 | 0.00 | 80 | 1014.6 | |
| 20260906105017 | 24 | 0.0 | 0.0 | 0.00 | 0.00 | 0.00 | 80 | 1014.6 | |
| 20260906104017 | 24 | 0.0 | 0.0 | 0.00 | 0.00 | 0.00 | 80 | 1014.6 | |
| 20260906103017 | 24 | 0.0 | 0.0 | 0.00 | 0.00 | 0.00 | 80 | 1014.8 | |
| 20260906102017 | 25 | 0.0 | 0.0 | 0.00 | 0.00 | 0.00 | 79 | 1014.7 | |
| 20260906101017 | 25 | 0.0 | 0.0 | 0.00 | 0.00 | 0.00 | 79 | 1014.6 | |
| 20260906100016 | 25 | 0.0 | 0.0 | 0.00 | 0.00 | 0.00 | 78 | 1014.5 | |
| 20260906095016 | 25 | 0.0 | 0.0 | 0.00 | 0.00 | 0.00 | 79 | 1014.5 | |
| 20260906094017 | 25 | 0.0 | 0.0 | 0.00 | 0.00 | 0.00 | 78 | 1014.5 | |
| 20260906093017 | 25 | 0.0 | 0.0 | 0.00 | 0.00 | 0.00 | 78 | 1014.4 | |
| 20260906092017 | 25 | 0.0 | 0.0 | 0.00 | 0.00 | 0.00 | 77 | 1014.1 | |
| 20260906091016 | 25 | 0.0 | 0.0 | 0.00 | 0.00 | 0.00 | 77 | 1014.1 | |
| 20260906090037 | 25 | 0.0 | 0.0 | 0.00 | 0.00 | 0.00 | 76 | 1014.1 | |
| 20260906085017 | 26 | 0.0 | 0.0 | 0.00 | 0.00 | 0.00 | 76 | 1013.8 | |
| 20260906084016 | 26 | 0.0 | 0.0 | 0.00 | 0.00 | 0.00 | 76 | 1013.9 | |
| 20260906083017 | 26 | 0.0 | 0.0 | 0.00 | 0.00 | 0.00 | 76 | 1013.9 | |
| 20260906082016 | 26 | 0.0 | 0.0 | 0.00 | 0.00 | 0.00 | 75 | 1014.0 | |
| 20260906081016 | 26 | 0.0 | 0.0 | 0.00 | 0.00 | 0.00 | 75 | 1014.1 | |
| 20260906080016 | 26 | 0.0 | 0.0 | 0.00 | 0.00 | 0.00 | 74 | 1014.3 | |
| 20260906075016 | 26 | 0.0 | 0.0 | 0.00 | 0.00 | 0.00 | 74 | 1014.5 | |
| 20260906074517 | 26 | 0.0 | 0.0 | 0.00 | 0.00 | 0.00 | 73 | 1014.6 | |
| 20260906073516 | 26 | 0.0 | 0.0 | 0.00 | 0.00 | 0.00 | 73 | 1014.6 | |
| 20260906072516 | 26 | 0.0 | 0.0 | 0.00 | 0.00 | 0.00 | 73 | 1014.4 | |
| 20260906071516 | 27 | 0.0 | 0.0 | 0.00 | 0.00 | 0.00 | 72 | 1014.4 | |
| 20260906070517 | 27 | 0.0 | 0.0 | 0.00 | 0.00 | 0.00 | 71 | 1014.3 | |
| 20260906065557 | 27 | 0.0 | 0.0 | 0.00 | 0.00 | 0.00 | 71 | 1014.5 | |
| 20260906064516 | 27 | 0.0 | 0.0 | 0.00 | 0.00 | 0.00 | 70 | 1014.7 | |
| 20260906063517 | 27 | 0.0 | 0.0 | 0.00 | 0.00 | 0.00 | 70 | 1014.7 | |
| 20260906062516 | 27 | 0.0 | 0.0 | 0.00 | 0.00 | 0.00 | 69 | 1014.7 | |
| 20260906061516 | 27 | 0.0 | 0.0 | 0.00 | 0.00 | 0.00 | 69 | 1014.8 | |
| 20260906060516 | 28 | 0.0 | 0.0 | 0.00 | 0.00 | 0.00 | 68 | 1014.7 | |
| 20260906055516 | 28 | 0.0 | 0.0 | 0.00 | 0.00 | 0.00 | 68 | 1014.8 | |
| 20260906054517 | 28 | 0.0 | 0.0 | 0.00 | 0.00 | 0.00 | 68 | 1014.8 | |
| 20260906053516 | 28 | 0.0 | 0.0 | 0.00 | 0.00 | 0.00 | 68 | 1014.7 | |
| 20260906052516 | 28 | 0.0 | 0.0 | 0.00 | 0.00 | 0.00 | 67 | 1014.8 | |
| 20260906051516 | 28 | 0.0 | 0.0 | 0.00 | 0.00 | 0.00 | 66 | 1015.0 | |
| 20260906050516 | 28 | 0.0 | 0.0 | 0.00 | 0.00 | 0.00 | 65 | 1014.8 | |
| 20260906045517 | 29 | 0.0 | 0.0 | 0.00 | 0.00 | 0.00 | 65 | 1014.7 | |
| 20260906044517 | 29 | 0.0 | 0.0 | 0.00 | 0.00 | 0.00 | 64 | 1014.7 | |
| 20260906043517 | 29 | 0.0 | 0.0 | 0.00 | 0.00 | 0.00 | 64 | 1014.7 | |
| 20260906042517 | 30 | 0.0 | 0.0 | 0.00 | 0.00 | 0.00 | 63 | 1014.6 | |
| 20260906041517 | 30 | 0.0 | 0.0 | 0.00 | 0.00 | 0.00 | 62 | 1014.5 | |
| 20260906040517 | 30 | 0.0 | 0.0 | 0.00 | 0.00 | 0.00 | 62 | 1014.4 | |
| 20260906035517 | 30 | 0.0 | 0.0 | 0.00 | 0.00 | 0.00 | 61 | 1014.5 | |
| 20260906034517 | 30 | 0.0 | 0.0 | 0.00 | 0.00 | 0.00 | 60 | 1014.5 | |
| 20260906033515 | 30 | 0.0 | 0.0 | 0.00 | 0.00 | 0.00 | 59 | 1014.4 | |
| 20260906032517 | 30 | 0.0 | 0.0 | 0.00 | 0.00 | 0.00 | 58 | 1014.5 | |
| 20260906031517 | 31 | 0.0 | 0.0 | 0.00 | 0.00 | 0.00 | 57 | 1014.4 | |
| 20260906030517 | 31 | 0.0 | 0.0 | 0.00 | 0.00 | 0.00 | 56 | 1014.3 | |
| 20260906025517 | 31 | 0.0 | 0.0 | 0.00 | 0.00 | 0.00 | 55 | 1014.3 | |
| 20260906024517 | 31 | 0.0 | 0.0 | 0.00 | 0.00 | 0.00 | 54 | 1014.2 | |
| 20260906023517 | 31 | 0.0 | 0.0 | 0.00 | 0.00 | 0.00 | 54 | 1013.8 | |
| 20260906022517 | 32 | 0.0 | 0.0 | 0.00 | 0.00 | 0.00 | 53 | 1013.7 | |
| 20260906021517 | 31 | 0.0 | 0.0 | 0.00 | 0.00 | 0.00 | 53 | 1013.6 | |
| 20260906020517 | 31 | 0.0 | 0.0 | 0.00 | 0.00 | 0.00 | 50 | 1013.2 | |
| 20260906015517 | 31 | 0.0 | 0.0 | 0.00 | 0.00 | 0.00 | 49 | 1012.9 | |
| 20260906014517 | 32 | 0.0 | 0.0 | 0.00 | 0.00 | 0.00 | 49 | 1012.8 | |
| 20260906013517 | 32 | 0.0 | 0.0 | 0.00 | 0.00 | 0.00 | 48 | 1012.6 | |
| 20260906012517 | 32 | 0.0 | 0.0 | 0.00 | 0.00 | 0.00 | 47 | 1012.5 | |
| 20260906011517 | 33 | 0.0 | 0.0 | 0.00 | 0.00 | 0.00 | 46 | 1012.3 | |
| 20260906010517 | 33 | 0.0 | 0.0 | 0.00 | 0.00 | 0.00 | 44 | 1012.2 | |
| 20260906005517 | 33 | 0.0 | 0.0 | 0.00 | 0.00 | 0.00 | 43 | 1012.4 | |
| 20260906004517 | 34 | 0.0 | 0.0 | 0.00 | 0.00 | 0.00 | 42 | 1012.4 | |
| 20260906003517 | 35 | 0.0 | 0.0 | 0.00 | 0.00 | 0.00 | 42 | 1012.3 | |
| 20260906002517 | 35 | 0.0 | 0.0 | 0.00 | 0.00 | 0.00 | 41 | 1012.3 | |
| 20260906001516 | 35 | 0.0 | 0.0 | 0.00 | 0.00 | 0.00 | 40 | 1012.3 | |
| 20260906000516 | 35 | 0.0 | 0.0 | 0.00 | 0.00 | 0.00 | 40 | 1012.2 | |
| 20260905235517 | 35 | 0.0 | 0.0 | 0.00 | 0.00 | 0.00 | 39 | 1012.2 | |
| 20260905234517 | 35 | 0.0 | 0.0 | 0.00 | 0.00 | 0.00 | 38 | 1012.1 | |
| 20260905233536 | 36 | 135 | 1.6 | 9.7 | 0.00 | 0.00 | 0.00 | 38 | 1012.2 |
| 20260905232517 | 36 | 135 | 4.8 | 14.5 | 0.00 | 0.00 | 0.00 | 37 | 1012.2 |
| 20260905231517 | 36 | 135 | 4.8 | 14.5 | 0.00 | 0.00 | 0.00 | 37 | 1012.1 |
| 20260905230516 | 36 | 135 | 1.6 | 8.0 | 0.00 | 0.00 | 0.00 | 37 | 1012.1 |